Time;durP1;ratioP1;P1;durP2;ratioP2;P2;SDS_P1;SDS_P2;PMS_P1;PMS_P2;Temp;Humidity;BMP_temperature;BMP_pressure;BME280_temperature;BME280_humidity;BME280_pressure;Samples;Min_cycle;Max_cycle;Signal;HPM_P1;HPM_P2
2024/04/12 00:00:57;;;;;;;3.60;3.33;;;;;;;;;;5487825;26;20307;-61
2024/04/12 00:03:22;;;;;;;3.20;3.00;;;;;;;;;;5484259;26;20227;-63
2024/04/12 00:05:54;;;;;;;4.57;4.03;;;;;;;;;;5487964;26;20315;-64
2024/04/12 00:08:19;;;;;;;3.67;3.38;;;;;;;;;;5484811;26;20397;-63
2024/04/12 00:10:47;;;;;;;3.60;3.30;;;;;;;;;;5487702;26;20238;-63
2024/04/12 00:13:13;;;;;;;3.25;2.95;;;;;;;;;;5484858;26;20707;-62
2024/04/12 00:15:42;;;;;;;4.10;3.70;;;;;;;;;;5487473;26;20273;-64
2024/04/12 00:18:08;;;;;;;8.38;3.70;;;;;;;;;;5485037;26;20760;-64
2024/04/12 00:20:36;;;;;;;4.40;3.38;;;;;;;;;;5487267;26;20290;-64
2024/04/12 00:23:04;;;;;;;3.97;3.65;;;;;;;;;;5484687;26;20222;-63
2024/04/12 00:25:34;;;;;;;3.85;3.55;;;;;;;;;;5487448;26;20282;-62
2024/04/12 00:28:01;;;;;;;4.60;3.67;;;;;;;;;;5484579;26;20231;-64
2024/04/12 00:30:41;;;;;;;4.18;3.80;;;;;;;;;;5486991;26;20238;-62
2024/04/12 00:33:10;;;;;;;4.10;3.70;;;;;;;;;;5484580;26;20223;-64
2024/04/12 00:35:38;;;;;;;5.10;4.70;;;;;;;;;;5487066;26;20231;-63
2024/04/12 00:38:09;;;;;;;3.92;3.50;;;;;;;;;;5451163;26;20323;-62
2024/04/12 00:40:40;;;;;;;3.85;3.47;;;;;;;;;;5487229;26;20231;-61
2024/04/12 00:43:11;;;;;;;6.15;5.65;;;;;;;;;;5484557;26;20261;-62
2024/04/12 00:45:43;;;;;;;5.75;5.25;;;;;;;;;;5453927;26;20230;-62
2024/04/12 00:48:09;;;;;;;4.43;4.03;;;;;;;;;;5484673;26;20227;-63
2024/04/12 00:50:40;;;;;;;4.80;4.35;;;;;;;;;;5486840;26;20803;-62
2024/04/12 00:53:09;;;;;;;4.47;4.18;;;;;;;;;;5484169;26;20297;-61
2024/04/12 00:55:39;;;;;;;6.50;4.18;;;;;;;;;;5486519;26;20242;-62
2024/04/12 00:58:06;;;;;;;4.88;4.38;;;;;;;;;;5484256;26;20243;-62
2024/04/12 01:00:46;;;;;;;6.05;4.38;;;;;;;;;;5486669;26;20243;-62
2024/04/12 01:03:15;;;;;;;5.57;4.07;;;;;;;;;;5484359;26;20775;-62
2024/04/12 01:05:43;;;;;;;3.47;3.13;;;;;;;;;;5487076;26;20315;-62
2024/04/12 01:08:11;;;;;;;6.03;4.05;;;;;;;;;;5484141;26;20306;-65
2024/04/12 01:10:39;;;;;;;4.07;3.70;;;;;;;;;;5486787;26;20273;-62
2024/04/12 01:13:05;;;;;;;4.10;3.72;;;;;;;;;;5483985;26;20343;-64
2024/04/12 01:15:36;;;;;;;4.28;3.90;;;;;;;;;;5484853;26;20226;-62
2024/04/12 01:18:04;;;;;;;4.97;4.25;;;;;;;;;;5484148;26;20247;-62
2024/04/12 01:20:34;;;;;;;4.15;3.42;;;;;;;;;;5486253;26;20620;-62
2024/04/12 01:23:00;;;;;;;4.22;3.70;;;;;;;;;;5483849;26;20290;-62
2024/04/12 01:25:32;;;;;;;4.65;4.25;;;;;;;;;;5486358;26;20326;-65
2024/04/12 01:27:57;;;;;;;4.20;3.80;;;;;;;;;;5483872;26;20231;-64
2024/04/12 01:30:25;;;;;;;3.38;3.08;;;;;;;;;;5486242;26;20254;-64
2024/04/12 01:32:51;;;;;;;4.78;4.28;;;;;;;;;;5483926;26;20352;-64
2024/04/12 01:35:21;;;;;;;4.68;3.85;;;;;;;;;;5486305;26;20242;-63
2024/04/12 01:37:46;;;;;;;4.20;3.90;;;;;;;;;;5483406;26;20602;-63
2024/04/12 01:40:15;;;;;;;6.43;4.40;;;;;;;;;;5486019;26;20231;-62
2024/04/12 01:42:44;;;;;;;4.43;4.03;;;;;;;;;;5483692;26;20231;-63
2024/04/12 01:45:17;;;;;;;4.18;3.88;;;;;;;;;;5486340;26;20274;-63
2024/04/12 01:47:45;;;;;;;3.42;3.13;;;;;;;;;;5483471;26;20222;-63
2024/04/12 01:50:21;;;;;;;4.45;4.03;;;;;;;;;;5486413;26;20231;-63
2024/04/12 01:52:54;;;;;;;4.10;3.70;;;;;;;;;;5483249;26;20239;-63
2024/04/12 01:55:22;;;;;;;4.65;3.22;;;;;;;;;;5486010;26;20304;-63
2024/04/12 01:57:51;;;;;;;4.60;4.20;;;;;;;;;;5483311;26;20235;-63
2024/04/12 02:00:20;;;;;;;4.43;4.13;;;;;;;;;;5452492;26;20223;-63
2024/04/12 02:02:46;;;;;;;4.60;4.20;;;;;;;;;;5482876;26;20818;-62
2024/04/12 02:05:14;;;;;;;4.70;4.30;;;;;;;;;;5485729;26;20264;-63
2024/04/12 02:07:40;;;;;;;6.00;5.05;;;;;;;;;;5482812;26;20273;-63
2024/04/12 02:10:11;;;;;;;6.10;5.18;;;;;;;;;;5485857;26;20258;-63
2024/04/12 02:12:37;;;;;;;7.93;7.15;;;;;;;;;;5483296;26;20278;-63
2024/04/12 02:15:19;;;;;;;6.68;5.93;;;;;;;;;;5485671;26;20234;-63
2024/04/12 02:17:46;;;;;;;5.80;5.40;;;;;;;;;;5483056;26;21169;-63
2024/04/12 02:20:19;;;;;;;7.30;6.50;;;;;;;;;;5485341;26;20234;-63
2024/04/12 02:22:45;;;;;;;6.57;5.93;;;;;;;;;;5483123;26;20333;-64
2024/04/12 02:25:17;;;;;;;6.43;5.93;;;;;;;;;;5485638;26;20227;-63
2024/04/12 02:27:42;;;;;;;7.75;7.05;;;;;;;;;;5485860;26;21079;-65
2024/04/12 02:30:14;;;;;;;7.18;6.55;;;;;;;;;;5488906;26;20223;-63
2024/04/12 02:32:39;;;;;;;6.97;6.35;;;;;;;;;;5486752;26;20356;-64
2024/04/12 02:35:07;;;;;;;6.95;6.35;;;;;;;;;;5488860;26;20226;-63
2024/04/12 02:37:34;;;;;;;7.82;7.22;;;;;;;;;;5486196;26;20347;-63
2024/04/12 02:40:06;;;;;;;5.57;5.18;;;;;;;;;;5488883;26;20799;-62
2024/04/12 02:42:33;;;;;;;5.25;4.85;;;;;;;;;;5486463;26;20285;-63
2024/04/12 02:45:04;;;;;;;4.65;4.25;;;;;;;;;;5489131;26;20824;-63
2024/04/12 02:47:34;;;;;;;5.20;4.80;;;;;;;;;;5486312;26;20243;-63
2024/04/12 02:50:09;;;;;;;8.35;7.60;;;;;;;;;;5426876;26;20291;-63
2024/04/12 02:52:35;;;;;;;7.85;6.95;;;;;;;;;;5370798;26;20250;-63
2024/04/12 02:55:05;;;;;;;8.63;7.72;;;;;;;;;;5488320;26;20340;-62
2024/04/12 02:57:35;;;;;;;8.43;7.70;;;;;;;;;;5486362;26;20281;-63
2024/04/12 03:00:03;;;;;;;7.38;6.82;;;;;;;;;;5488223;26;20239;-63
2024/04/12 03:02:32;;;;;;;6.05;5.65;;;;;;;;;;5486032;26;20278;-65
2024/04/12 03:05:02;;;;;;;6.10;5.60;;;;;;;;;;5488793;26;20235;-62
2024/04/12 03:07:27;;;;;;;6.18;5.20;;;;;;;;;;5486092;26;20226;-62
2024/04/12 03:09:55;;;;;;;6.00;5.07;;;;;;;;;;5488711;26;20278;-62
2024/04/12 03:12:21;;;;;;;5.85;5.35;;;;;;;;;;5485882;26;20281;-63
2024/04/12 03:14:54;;;;;;;5.20;4.72;;;;;;;;;;5488206;26;20287;-63
2024/04/12 03:17:21;;;;;;;6.90;6.30;;;;;;;;;;5452614;26;20226;-63
2024/04/12 03:19:54;;;;;;;9.60;7.88;;;;;;;;;;5488369;26;20227;-64
2024/04/12 03:22:21;;;;;;;8.57;7.63;;;;;;;;;;5485896;26;20322;-64
2024/04/12 03:24:50;;;;;;;6.43;5.82;;;;;;;;;;5425340;26;20762;-62
2024/04/12 03:27:16;;;;;;;6.70;6.10;;;;;;;;;;5485630;26;20302;-62
2024/04/12 03:29:49;;;;;;;7.47;6.70;;;;;;;;;;5454589;26;20273;-62
2024/04/12 03:32:14;;;;;;;7.82;7.05;;;;;;;;;;5485502;26;20242;-63
2024/04/12 03:34:43;;;;;;;6.97;5.85;;;;;;;;;;5487752;26;20265;-62
2024/04/12 03:37:23;;;;;;;6.57;5.97;;;;;;;;;;5485105;26;20227;-62
2024/04/12 03:40:00;;;;;;;4.63;4.22;;;;;;;;;;5486763;26;20704;-62
2024/04/12 03:42:28;;;;;;;6.18;5.57;;;;;;;;;;5485102;26;20219;-62
2024/04/12 03:44:58;;;;;;;6.88;6.25;;;;;;;;;;5487886;26;20230;-61
2024/04/12 03:47:25;;;;;;;6.97;6.35;;;;;;;;;;5484941;26;20227;-62
2024/04/12 03:49:53;;;;;;;7.03;6.40;;;;;;;;;;5454683;26;20222;-62
2024/04/12 03:52:22;;;;;;;6.32;5.82;;;;;;;;;;5485033;26;20243;-62
2024/04/12 03:55:08;;;;;;;5.82;5.43;;;;;;;;;;5487504;26;20270;-63
2024/04/12 03:57:38;;;;;;;6.03;5.43;;;;;;;;;;5485063;26;20231;-64
2024/04/12 04:00:10;;;;;;;7.63;6.82;;;;;;;;;;5487149;26;20278;-64
2024/04/12 04:02:39;;;;;;;7.88;7.18;;;;;;;;;;5485063;26;20298;-61
2024/04/12 04:05:16;;;;;;;6.97;6.43;;;;;;;;;;5484770;26;20257;-64
2024/04/12 04:07:44;;;;;;;7.85;7.03;;;;;;;;;;5426719;26;20231;-64
2024/04/12 04:10:14;;;;;;;7.70;5.82;;;;;;;;;;5487300;26;20231;-64
2024/04/12 04:12:44;;;;;;;9.50;8.02;;;;;;;;;;5484783;26;20629;-64
2024/04/12 04:15:13;;;;;;;8.68;7.88;;;;;;;;;;5487337;26;20234;-62
2024/04/12 04:17:38;;;;;;;9.45;7.70;;;;;;;;;;5484763;26;20258;-64
2024/04/12 04:20:10;;;;;;;6.68;6.07;;;;;;;;;;5487237;26;20227;-62
2024/04/12 04:22:41;;;;;;;9.88;7.40;;;;;;;;;;5484577;26;20590;-62
2024/04/12 04:25:13;;;;;;;9.00;7.38;;;;;;;;;;5426848;26;20239;-62
2024/04/12 04:27:39;;;;;;;7.55;6.85;;;;;;;;;;5484709;26;20223;-63
2024/04/12 04:30:10;;;;;;;8.57;6.97;;;;;;;;;;5487030;26;20265;-62
2024/04/12 04:32:36;;;;;;;8.43;7.63;;;;;;;;;;5484186;26;20289;-64
2024/04/12 04:35:08;;;;;;;6.72;6.13;;;;;;;;;;5486579;26;20282;-65
2024/04/12 04:37:34;;;;;;;8.02;7.35;;;;;;;;;;5484390;26;20218;-64
2024/04/12 04:40:08;;;;;;;6.63;6.03;;;;;;;;;;5486772;26;20294;-62
2024/04/12 04:42:37;;;;;;;8.40;6.45;;;;;;;;;;5484254;26;20357;-62
2024/04/12 04:45:07;;;;;;;6.32;5.82;;;;;;;;;;5486682;26;20231;-62
2024/04/12 04:47:33;;;;;;;7.80;5.53;;;;;;;;;;5483634;26;20274;-62
2024/04/12 04:50:02;;;;;;;5.43;4.95;;;;;;;;;;5486463;26;20235;-62
2024/04/12 04:52:34;;;;;;;5.18;4.68;;;;;;;;;;5483539;26;20614;-61
2024/04/12 04:55:03;;;;;;;4.20;3.80;;;;;;;;;;5486702;26;20627;-63
2024/04/12 04:57:29;;;;;;;5.38;3.83;;;;;;;;;;5484166;26;20230;-61
2024/04/12 05:00:06;;;;;;;10.65;7.50;;;;;;;;;;5486135;26;20239;-55
2024/04/12 05:02:34;;;;;;;8.68;7.18;;;;;;;;;;5484224;26;20342;-64
2024/04/12 05:05:04;;;;;;;7.72;6.93;;;;;;;;;;5486277;26;20550;-61
2024/04/12 05:07:33;;;;;;;7.40;6.63;;;;;;;;;;5483845;26;20231;-63
2024/04/12 05:10:08;;;;;;;11.18;6.82;;;;;;;;;;5486291;26;20227;-61
2024/04/12 05:12:34;;;;;;;7.57;6.32;;;;;;;;;;5425541;26;20276;-62
2024/04/12 05:15:10;;;;;;;7.65;6.57;;;;;;;;;;5486688;26;20226;-63
2024/04/12 05:17:37;;;;;;;9.05;6.65;;;;;;;;;;5450776;26;20675;-62
2024/04/12 05:20:14;;;;;;;10.23;6.40;;;;;;;;;;5486015;26;20238;-62
2024/04/12 05:22:41;;;;;;;5.28;4.82;;;;;;;;;;5426120;26;20282;-60
2024/04/12 05:25:13;;;;;;;8.73;6.25;;;;;;;;;;5485849;26;20272;-60
2024/04/12 05:27:39;;;;;;;12.05;6.38;;;;;;;;;;5483745;26;20235;-62
2024/04/12 05:30:13;;;;;;;11.70;5.78;;;;;;;;;;5486062;26;20227;-62
2024/04/12 05:32:43;;;;;;;11.35;6.65;;;;;;;;;;5483847;26;20346;-62
2024/04/12 05:35:15;;;;;;;6.32;5.45;;;;;;;;;;5485543;26;20288;-59
2024/04/12 05:37:43;;;;;;;4.65;4.25;;;;;;;;;;5483149;26;20798;-59
2024/04/12 05:40:13;;;;;;;5.10;4.10;;;;;;;;;;5485528;26;20274;-58
2024/04/12 05:42:41;;;;;;;4.78;3.95;;;;;;;;;;5483085;26;20386;-58
2024/04/12 05:45:19;;;;;;;5.38;4.10;;;;;;;;;;5485911;26;20227;-61
2024/04/12 05:47:44;;;;;;;5.43;4.95;;;;;;;;;;5483101;26;20363;-59
2024/04/12 05:50:13;;;;;;;4.50;4.20;;;;;;;;;;5485851;26;20239;-59
2024/04/12 05:52:38;;;;;;;5.57;4.07;;;;;;;;;;5483064;26;20705;-58
2024/04/12 05:55:13;;;;;;;5.53;5.00;;;;;;;;;;5485858;26;20341;-61
2024/04/12 05:57:39;;;;;;;5.53;4.35;;;;;;;;;;5483355;26;20278;-60
2024/04/12 06:00:09;;;;;;;4.88;3.58;;;;;;;;;;5485472;26;20227;-60
2024/04/12 06:02:42;;;;;;;6.18;4.55;;;;;;;;;;5481806;26;20231;-60
2024/04/12 06:05:18;;;;;;;8.38;3.92;;;;;;;;;;5485017;26;20226;-60
2024/04/12 06:07:47;;;;;;;5.07;4.00;;;;;;;;;;5482811;26;20226;-60
2024/04/12 06:10:17;;;;;;;5.38;3.47;;;;;;;;;;5485410;26;20226;-60
2024/04/12 06:12:45;;;;;;;8.68;4.80;;;;;;;;;;5482648;26;20759;-60
2024/04/12 06:15:15;;;;;;;6.78;4.95;;;;;;;;;;5485525;26;20283;-61
2024/04/12 06:17:44;;;;;;;6.25;4.60;;;;;;;;;;5482570;26;20330;-60
2024/04/12 06:20:12;;;;;;;4.22;3.58;;;;;;;;;;5484916;26;20682;-60
2024/04/12 06:22:38;;;;;;;8.85;7.68;;;;;;;;;;5482803;26;20230;-60
2024/04/12 06:25:08;;;;;;;11.20;9.23;;;;;;;;;;5484920;26;21105;-60
2024/04/12 06:27:34;;;;;;;9.27;8.35;;;;;;;;;;5419288;26;20231;-61
2024/04/12 06:30:05;;;;;;;6.63;5.85;;;;;;;;;;5484949;26;20565;-60
2024/04/12 06:32:31;;;;;;;8.02;6.45;;;;;;;;;;5482306;26;20788;-60
2024/04/12 06:35:03;;;;;;;6.38;5.30;;;;;;;;;;5485799;26;20231;-60
2024/04/12 06:37:31;;;;;;;17.33;13.73;;;;;;;;;;5483048;26;20261;-59
2024/04/12 06:40:03;;;;;;;15.25;8.13;;;;;;;;;;5485001;26;20231;-60
2024/04/12 06:42:33;;;;;;;11.07;8.85;;;;;;;;;;5482214;26;20218;-60
2024/04/12 06:45:01;;;;;;;7.47;6.63;;;;;;;;;;5482042;26;20273;-60
2024/04/12 06:47:30;;;;;;;6.45;4.95;;;;;;;;;;5484354;26;20231;-60
2024/04/12 06:50:08;;;;;;;5.60;4.10;;;;;;;;;;5481977;26;20274;-60
2024/04/12 06:52:36;;;;;;;10.18;7.45;;;;;;;;;;5484318;26;20302;-59
2024/04/12 06:55:01;;;;;;;4.97;4.03;;;;;;;;;;5481630;26;20251;-60
2024/04/12 06:57:31;;;;;;;3.83;3.53;;;;;;;;;;5420952;26;20268;-60
2024/04/12 06:59:58;;;;;;;4.88;3.20;;;;;;;;;;5481498;26;20342;-60
2024/04/12 07:02:26;;;;;;;4.03;3.35;;;;;;;;;;5484299;26;20219;-60
2024/04/12 07:04:52;;;;;;;4.30;3.40;;;;;;;;;;5481774;26;20255;-60
2024/04/12 07:07:28;;;;;;;9.77;3.28;;;;;;;;;;5484544;26;20707;-60
2024/04/12 07:09:57;;;;;;;3.97;3.53;;;;;;;;;;5481569;26;20286;-60
2024/04/12 07:12:27;;;;;;;4.03;3.15;;;;;;;;;;5483586;26;20278;-57
2024/04/12 07:14:54;;;;;;;3.10;2.80;;;;;;;;;;5485095;26;20231;-57
2024/04/12 07:17:23;;;;;;;4.20;3.10;;;;;;;;;;5487652;26;20696;-60
2024/04/12 07:19:49;;;;;;;3.83;2.97;;;;;;;;;;5485337;26;20338;-58
2024/04/12 07:22:19;;;;;;;3.30;3.00;;;;;;;;;;5487486;26;20227;-59
2024/04/12 07:24:47;;;;;;;3.90;3.05;;;;;;;;;;5485042;26;20251;-60
2024/04/12 07:27:17;;;;;;;4.53;3.03;;;;;;;;;;5486445;26;20238;-59
2024/04/12 07:29:44;;;;;;;3.70;3.40;;;;;;;;;;5483997;26;20234;-58
2024/04/12 07:32:13;;;;;;;3.70;3.40;;;;;;;;;;5485123;26;20787;-55
2024/04/12 07:34:48;;;;;;;3.63;3.28;;;;;;;;;;5483856;26;20251;-57
2024/04/12 07:37:21;;;;;;;4.35;2.70;;;;;;;;;;5486647;26;20234;-54
2024/04/12 07:40:00;;;;;;;5.30;3.08;;;;;;;;;;5321984;26;20286;-46
2024/04/12 07:42:36;;;;;;;3.30;3.00;;;;;;;;;;5479866;26;20375;-44
2024/04/12 07:45:06;;;;;;;3.83;2.92;;;;;;;;;;5483559;26;20309;-44
2024/04/12 07:47:35;;;;;;;3.55;2.85;;;;;;;;;;5485745;26;20243;-44
2024/04/12 07:50:08;;;;;;;3.35;3.05;;;;;;;;;;5480313;26;20288;-43
2024/04/12 07:52:38;;;;;;;3.90;3.25;;;;;;;;;;5486641;26;20740;-44
2024/04/12 07:55:09;;;;;;;4.60;3.53;;;;;;;;;;5484001;26;20342;-45
2024/04/12 07:57:37;;;;;;;3.85;3.45;;;;;;;;;;5484939;26;20281;-45
2024/04/12 08:00:09;;;;;;;3.60;2.65;;;;;;;;;;5483256;26;20304;-45
2024/04/12 08:02:37;;;;;;;3.13;2.80;;;;;;;;;;5438560;26;20230;-45
2024/04/12 08:05:14;;;;;;;5.38;3.33;;;;;;;;;;5483317;26;20323;-44
2024/04/12 08:07:42;;;;;;;4.47;3.40;;;;;;;;;;5485279;26;21156;-43
2024/04/12 08:10:27;;;;;;;3.63;3.22;;;;;;;;;;5481826;26;20912;-46
2024/04/12 08:12:57;;;;;;;4.35;2.50;;;;;;;;;;5482642;26;20239;-42
2024/04/12 08:15:23;;;;;;;4.00;2.92;;;;;;;;;;5483176;26;20231;-44
2024/04/12 08:17:55;;;;;;;3.65;3.35;;;;;;;;;;5485868;26;20884;-43
2024/04/12 08:20:25;;;;;;;3.15;2.95;;;;;;;;;;5483285;26;20239;-45
2024/04/12 08:22:53;;;;;;;3.55;3.25;;;;;;;;;;5485831;26;20282;-44
2024/04/12 08:25:26;;;;;;;14.43;13.15;;;;;;;;;;5482845;26;20346;-44
2024/04/12 08:27:55;;;;;;;13.43;12.23;;;;;;;;;;5486439;26;20290;-44
2024/04/12 08:30:21;;;;;;;7.70;7.00;;;;;;;;;;5483836;26;20281;-44
2024/04/12 08:32:51;;;;;;;5.85;3.95;;;;;;;;;;5456622;26;20239;-46
2024/04/12 08:35:19;;;;;;;4.07;3.38;;;;;;;;;;5447917;26;20274;-45
2024/04/12 08:37:48;;;;;;;5.40;3.10;;;;;;;;;;5450218;26;20426;-47
2024/04/12 08:40:19;;;;;;;3.97;3.28;;;;;;;;;;5447811;26;20664;-44
2024/04/12 08:42:50;;;;;;;10.30;9.40;;;;;;;;;;5449852;26;20235;-46
2024/04/12 08:45:18;;;;;;;4.43;4.03;;;;;;;;;;5479610;26;20238;-45
2024/04/12 08:47:56;;;;;;;4.97;4.45;;;;;;;;;;5486203;26;20273;-45
2024/04/12 08:50:23;;;;;;;3.75;3.45;;;;;;;;;;5483762;26;20222;-44
2024/04/12 08:52:53;;;;;;;4.45;3.25;;;;;;;;;;5485956;26;20347;-45
2024/04/12 08:55:20;;;;;;;3.38;3.08;;;;;;;;;;5483450;26;20909;-47
2024/04/12 08:57:56;;;;;;;3.53;3.00;;;;;;;;;;5485947;26;20254;-45
2024/04/12 09:00:28;;;;;;;5.50;3.40;;;;;;;;;;5483234;26;20344;-44
2024/04/12 09:02:58;;;;;;;3.45;3.15;;;;;;;;;;5485976;26;20719;-45
2024/04/12 09:05:25;;;;;;;13.02;12.02;;;;;;;;;;5483348;26;20239;-46
2024/04/12 09:07:56;;;;;;;10.18;9.32;;;;;;;;;;5485606;26;20759;-45
2024/04/12 09:10:21;;;;;;;4.97;4.55;;;;;;;;;;5482883;26;21153;-47
2024/04/12 09:12:52;;;;;;;3.97;3.58;;;;;;;;;;5485283;26;20231;-46
2024/04/12 09:15:24;;;;;;;4.55;3.15;;;;;;;;;;5421106;26;20268;-46
2024/04/12 09:17:59;;;;;;;3.40;3.10;;;;;;;;;;5485153;26;20274;-47
2024/04/12 09:20:30;;;;;;;3.17;2.88;;;;;;;;;;5482816;26;20277;-46
2024/04/12 09:23:13;;;;;;;4.15;3.35;;;;;;;;;;5485935;26;20330;-47
2024/04/12 09:25:41;;;;;;;3.17;2.90;;;;;;;;;;5483368;26;20235;-46
2024/04/12 09:28:13;;;;;;;3.53;3.00;;;;;;;;;;5484970;26;20242;-46
2024/04/12 09:33:28;;;;;;;3.63;3.33;;;;;;;;;;5481981;26;20327;-46
2024/04/12 09:36:02;;;;;;;12.98;11.82;;;;;;;;;;5481300;26;20231;-51
2024/04/12 09:38:28;;;;;;;8.57;7.85;;;;;;;;;;5482360;26;20234;-45
2024/04/12 09:41:03;;;;;;;5.45;5.05;;;;;;;;;;5484643;26;20281;-46
2024/04/12 09:43:36;;;;;;;3.85;3.40;;;;;;;;;;5482490;26;20268;-43
2024/04/12 09:46:17;;;;;;;3.78;3.28;;;;;;;;;;5451893;26;20712;-46
2024/04/12 10:38:34;;;;;;;9.52;7.32;;;;;;;;;;5484444;26;20265;-46
2024/04/12 10:41:03;;;;;;;8.18;6.75;;;;;;;;;;5480933;26;20259;-45
2024/04/12 10:43:35;;;;;;;7.32;5.80;;;;;;;;;;5418582;26;20227;-45
2024/04/12 10:46:04;;;;;;;5.53;5.03;;;;;;;;;;5484080;26;20771;-46
2024/04/12 10:48:33;;;;;;;8.52;4.78;;;;;;;;;;5483383;26;20359;-46
2024/04/12 10:51:04;;;;;;;7.32;4.93;;;;;;;;;;5487280;26;20549;-48
2024/04/12 10:53:31;;;;;;;6.15;4.30;;;;;;;;;;5485031;26;20239;-46
2024/04/12 10:56:02;;;;;;;4.32;3.63;;;;;;;;;;5487592;26;20300;-46
2024/04/12 10:58:33;;;;;;;5.20;3.42;;;;;;;;;;5484789;26;20231;-46
2024/04/12 11:01:04;;;;;;;7.65;5.32;;;;;;;;;;5400679;26;20269;-47
2024/04/12 11:03:29;;;;;;;6.30;4.57;;;;;;;;;;5452593;26;20232;-46
2024/04/12 11:06:17;;;;;;;5.22;4.75;;;;;;;;;;5487214;26;20282;-49
2024/04/12 11:08:43;;;;;;;4.38;3.40;;;;;;;;;;5484444;26;21439;-48
2024/04/12 11:11:19;;;;;;;4.10;3.60;;;;;;;;;;5486916;26;20223;-48
2024/04/12 11:13:46;;;;;;;4.75;3.70;;;;;;;;;;5480601;26;20238;-49
2024/04/12 11:33:02;;;;;;;7.82;5.43;;;;;;;;;;5410268;26;20263;-46
2024/04/12 11:35:30;;;;;;;10.68;8.32;;;;;;;;;;5381753;26;20241;-48
2024/04/12 11:38:04;;;;;;;5.80;5.20;;;;;;;;;;5408361;26;20237;-46
2024/04/12 11:40:32;;;;;;;8.10;6.85;;;;;;;;;;5408507;26;20240;-46
2024/04/12 11:43:00;;;;;;;15.80;9.85;;;;;;;;;;5411339;26;20233;-46
2024/04/12 11:45:30;;;;;;;6.75;5.72;;;;;;;;;;5408771;26;20891;-47
2024/04/12 11:47:58;;;;;;;6.70;4.80;;;;;;;;;;5325845;26;20248;-45
2024/04/12 11:50:26;;;;;;;6.93;4.18;;;;;;;;;;5408822;26;20360;-45
2024/04/12 11:52:55;;;;;;;4.00;3.67;;;;;;;;;;5423466;26;20315;-47
2024/04/12 11:55:26;;;;;;;4.63;3.28;;;;;;;;;;5448257;26;20251;-46
2024/04/12 11:57:55;;;;;;;4.60;4.20;;;;;;;;;;5435872;26;20646;-47
2024/04/12 12:00:21;;;;;;;3.63;3.33;;;;;;;;;;5449782;26;20524;-47
2024/04/12 12:02:52;;;;;;;5.47;4.07;;;;;;;;;;5487065;26;20712;-50
2024/04/12 12:05:17;;;;;;;3.78;3.33;;;;;;;;;;5484692;26;20338;-46
2024/04/12 12:07:47;;;;;;;3.55;3.25;;;;;;;;;;5486289;26;20234;-47
2024/04/12 12:10:13;;;;;;;3.28;3.03;;;;;;;;;;5484185;26;20285;-46
2024/04/12 12:12:44;;;;;;;3.72;3.35;;;;;;;;;;5486638;26;20849;-46
2024/04/12 12:15:10;;;;;;;3.45;3.20;;;;;;;;;;5484288;26;20257;-46
2024/04/12 12:17:38;;;;;;;4.78;3.47;;;;;;;;;;5486335;26;20243;-48
2024/04/12 12:20:05;;;;;;;3.78;3.10;;;;;;;;;;5482195;26;20235;-46
2024/04/12 12:22:33;;;;;;;3.35;2.78;;;;;;;;;;5485828;26;20235;-44
2024/04/12 12:24:59;;;;;;;6.35;5.75;;;;;;;;;;5484062;26;20273;-47
2024/04/12 12:27:28;;;;;;;6.20;5.70;;;;;;;;;;5486731;26;20286;-47
2024/04/12 12:29:56;;;;;;;4.47;4.03;;;;;;;;;;5483345;26;20230;-46
2024/04/12 12:32:26;;;;;;;4.18;3.25;;;;;;;;;;5484863;26;20242;-47
2024/04/12 12:34:53;;;;;;;3.40;2.92;;;;;;;;;;5484212;26;20270;-47
2024/04/12 12:37:21;;;;;;;3.22;2.92;;;;;;;;;;5424471;26;20238;-47
2024/04/12 12:39:47;;;;;;;4.53;3.88;;;;;;;;;;5483697;26;20334;-46
2024/04/12 12:42:16;;;;;;;2.63;2.42;;;;;;;;;;5423973;26;20869;-49
2024/04/12 12:44:43;;;;;;;10.60;9.65;;;;;;;;;;5483478;26;20304;-47
2024/04/12 12:47:20;;;;;;;6.13;5.57;;;;;;;;;;5485966;26;20723;-48
2024/04/12 12:49:46;;;;;;;6.22;4.43;;;;;;;;;;5483640;26;20234;-54
2024/04/12 12:52:15;;;;;;;4.80;3.55;;;;;;;;;;5416612;26;20643;-51
2024/04/12 12:54:41;;;;;;;3.60;2.90;;;;;;;;;;5478074;26;20360;-48
2024/04/12 12:57:10;;;;;;;4.20;3.10;;;;;;;;;;5485972;26;20281;-50
2024/04/12 12:59:40;;;;;;;3.67;3.00;;;;;;;;;;5362308;26;20235;-50
2024/04/12 13:02:13;;;;;;;2.80;2.60;;;;;;;;;;5485771;26;20230;-48
2024/04/12 13:04:42;;;;;;;2.63;2.42;;;;;;;;;;5483167;26;20227;-50
2024/04/12 13:07:10;;;;;;;4.78;2.50;;;;;;;;;;5449294;26;20331;-49
2024/04/12 13:09:36;;;;;;;3.03;2.83;;;;;;;;;;5474672;26;20235;-48
2024/04/12 13:12:09;;;;;;;3.50;2.83;;;;;;;;;;5423105;26;20243;-49
2024/04/12 13:14:37;;;;;;;3.70;3.40;;;;;;;;;;5447054;26;20779;-51
2024/04/12 13:17:12;;;;;;;4.03;2.88;;;;;;;;;;5449415;26;20747;-49
2024/04/12 13:19:38;;;;;;;2.75;2.25;;;;;;;;;;5473569;26;20254;-48
2024/04/12 13:22:11;;;;;;;3.70;3.38;;;;;;;;;;5485542;26;20273;-49
2024/04/12 13:24:37;;;;;;;4.70;4.30;;;;;;;;;;5483044;26;20226;-48
2024/04/12 13:27:07;;;;;;;7.88;6.55;;;;;;;;;;5485485;26;20227;-48
2024/04/12 13:29:33;;;;;;;6.25;5.13;;;;;;;;;;5482754;26;20273;-49
2024/04/12 13:32:02;;;;;;;4.32;3.92;;;;;;;;;;5483875;26;20359;-48
2024/04/12 13:34:27;;;;;;;3.35;3.00;;;;;;;;;;5482509;26;20234;-51
2024/04/12 13:36:58;;;;;;;5.22;2.95;;;;;;;;;;5485348;26;20272;-49
2024/04/12 13:39:34;;;;;;;5.68;3.20;;;;;;;;;;5482008;26;20366;-51
2024/04/12 13:42:03;;;;;;;3.03;2.72;;;;;;;;;;5484472;26;20291;-50
2024/04/12 13:52:39;;;;;;;20.08;5.25;;;;;;;;;;5484289;26;20359;-57
2024/04/12 13:55:14;;;;;;;5.53;3.38;;;;;;;;;;5482390;26;20231;-57
2024/04/12 13:57:40;;;;;;;44.60;8.20;;;;;;;;;;5482183;26;20571;-58
2024/04/12 14:00:13;;;;;;;14.93;4.80;;;;;;;;;;5484525;26;20231;-55
2024/04/12 14:02:40;;;;;;;5.63;2.97;;;;;;;;;;5421732;26;20352;-51
2024/04/12 14:05:16;;;;;;;4.85;2.92;;;;;;;;;;5484948;26;20234;-51
2024/04/12 14:07:49;;;;;;;5.13;3.17;;;;;;;;;;5481422;26;20238;-50
2024/04/12 14:10:21;;;;;;;5.95;3.15;;;;;;;;;;5484326;26;20286;-51
2024/04/12 14:12:47;;;;;;;15.80;12.40;;;;;;;;;;5482152;26;20755;-50
2024/04/12 14:15:15;;;;;;;7.95;6.45;;;;;;;;;;5484910;26;20226;-50
2024/04/12 14:17:41;;;;;;;6.30;5.70;;;;;;;;;;5482161;26;20303;-50
2024/04/12 14:20:15;;;;;;;6.00;4.78;;;;;;;;;;5483593;26;20235;-54
2024/04/12 14:22:41;;;;;;;5.72;4.10;;;;;;;;;;5483008;26;20234;-49
2024/04/12 14:25:09;;;;;;;6.00;4.68;;;;;;;;;;5487323;26;20282;-52
2024/04/12 14:27:40;;;;;;;7.00;5.15;;;;;;;;;;5485025;26;20227;-49
2024/04/12 14:30:15;;;;;;;4.30;3.33;;;;;;;;;;5487655;26;20234;-49
2024/04/12 14:32:42;;;;;;;3.30;2.83;;;;;;;;;;5485075;26;20267;-48
2024/04/12 14:35:10;;;;;;;5.90;3.22;;;;;;;;;;5487395;26;20243;-49
2024/04/12 14:37:36;;;;;;;4.47;2.95;;;;;;;;;;5484886;26;20246;-52
2024/04/12 14:40:06;;;;;;;2.80;2.65;;;;;;;;;;5487330;26;20388;-49
2024/04/12 14:42:32;;;;;;;3.30;2.72;;;;;;;;;;5485136;26;20235;-51
2024/04/12 14:45:06;;;;;;;4.05;2.80;;;;;;;;;;5488156;26;20745;-51
2024/04/12 14:47:31;;;;;;;3.20;2.72;;;;;;;;;;5485224;26;20276;-48
2024/04/12 14:50:00;;;;;;;3.50;2.75;;;;;;;;;;5487740;26;20724;-50
2024/04/12 14:52:26;;;;;;;2.72;2.50;;;;;;;;;;5484926;26;20363;-49
2024/04/12 14:54:54;;;;;;;2.97;2.78;;;;;;;;;;5488047;26;20712;-50
2024/04/12 14:57:21;;;;;;;3.85;3.45;;;;;;;;;;5484937;26;20239;-53
2024/04/12 14:59:49;;;;;;;2.90;2.70;;;;;;;;;;5486987;26;20243;-52
2024/04/12 15:48:41;;;;;;;3.75;2.67;;;;;;;;;;5486836;26;20789;-55
2024/04/12 15:51:14;;;;;;;3.72;2.67;;;;;;;;;;5483881;26;20289;-54
2024/04/12 15:53:45;;;;;;;3.85;2.83;;;;;;;;;;5486576;26;20243;-53
2024/04/12 16:12:40;;;;;;;11.48;10.40;;;;;;;;;;5450946;26;20610;-54
2024/04/12 16:15:06;;;;;;;6.57;5.93;;;;;;;;;;5481473;26;20267;-56
2024/04/12 16:17:34;;;;;;;5.53;5.07;;;;;;;;;;5486118;26;20231;-53
2024/04/12 16:20:03;;;;;;;4.80;4.30;;;;;;;;;;5478999;26;20751;-50
2024/04/12 16:22:31;;;;;;;3.70;3.40;;;;;;;;;;5483101;26;20839;-51
2024/04/12 16:24:59;;;;;;;3.70;3.10;;;;;;;;;;5486301;26;20227;-53
2024/04/12 16:27:27;;;;;;;3.60;3.28;;;;;;;;;;5481702;26;20250;-53
2024/04/12 16:29:53;;;;;;;3.85;3.05;;;;;;;;;;5484230;26;20235;-53
2024/04/12 16:32:21;;;;;;;3.83;3.40;;;;;;;;;;5484840;26;20251;-55
2024/04/12 16:34:53;;;;;;;3.17;2.88;;;;;;;;;;5483307;26;20581;-52
2024/04/12 16:37:22;;;;;;;3.22;2.90;;;;;;;;;;5486101;26;20234;-55
2024/04/12 16:39:51;;;;;;;7.13;6.47;;;;;;;;;;5483162;26;20338;-56
2024/04/12 16:42:19;;;;;;;5.15;4.07;;;;;;;;;;5485080;26;20281;-50
2024/04/12 16:44:45;;;;;;;3.80;3.40;;;;;;;;;;5483041;26;20273;-51
2024/04/12 16:47:13;;;;;;;3.90;3.50;;;;;;;;;;5485637;26;20243;-53
2024/04/12 16:49:39;;;;;;;5.45;4.63;;;;;;;;;;5483480;26;20565;-51
2024/04/12 16:52:07;;;;;;;3.95;3.55;;;;;;;;;;5485048;26;21187;-57
2024/04/12 16:54:33;;;;;;;6.35;5.72;;;;;;;;;;5483836;26;20605;-57
2024/04/12 16:57:03;;;;;;;5.28;4.35;;;;;;;;;;5485560;26;20232;-55
2024/04/12 16:59:29;;;;;;;6.80;5.47;;;;;;;;;;5483540;26;21112;-52
2024/04/12 17:01:57;;;;;;;5.35;4.50;;;;;;;;;;5484622;26;20316;-50
2024/04/12 17:04:23;;;;;;;4.38;3.97;;;;;;;;;;5444080;26;20326;-54
2024/04/12 17:06:51;;;;;;;7.07;4.97;;;;;;;;;;5449650;26;20244;-52
2024/04/12 17:09:20;;;;;;;4.88;4.20;;;;;;;;;;5414043;26;20244;-52
2024/04/12 17:11:49;;;;;;;4.45;4.05;;;;;;;;;;5451550;26;20240;-52
2024/04/12 17:14:17;;;;;;;5.90;4.25;;;;;;;;;;5480476;26;20351;-59